Terminal Aerodrome Forecast
Issued by NWS Louisville, KY

Home | Current Version | Previous Version | Text Only | Print | Product List | Glossary On
Versions: 1 2 3 4 5 6 7 8 9 10 11 12 13 14 15 16 17
647
FTUS43 KLMK 300520
TAFSDF
TAF
KSDF 300520Z 3006/0112 18007KT P6SM SCT070 BKN250 WS020/17042KT
     FM301400 18015G24KT P6SM SCT050 BKN250
     FM010200 16016G24KT P6SM VCTS BKN040CB=

USA.gov is the U.S. government's official web portal to all federal, state and local government web resources and services.